Lake Tahoe Airport
KTVL : now visible

Airfield :











YOU CAN JOIN US ON...

 
LOGIN :

Register | Disclaimer

   EN    FR    IT 

 









Legend :    VFR   Marginal VFR   IFR   Intensive IFR   Very Intensive IFR
Visi :
Ceiling :
>= 8 km
>= 3000ft
5 to 8 km
1000 to 3000 ft
1500m to 5 km
500 to 1000 ft
800 to 1500m
200 to 500 ft
< 800m
< 200 ft
Symbols :   Thunderstorms  Fog  Heavy snow  Heavy precipitations  Wind > 20 kt






- Airport Elevation : 6264 ft
- IATA code : TVL


KTVL - Lake Tahoe

CURRENT METAR :
  • 110453Z AUTO 00000KT FEW095 FEW110 01/M06 A3020 RMK AO2 SLP236 T00111056 $

EXPIRED METARs :
  • 110353Z AUTO 00000KT OVC110 M01/M03 A3018 RMK AO2 SLP237 T10061028 $
  • 110253Z AUTO 00000KT BKN085 BKN110 M01/M03 A3019 RMK AO2 SLP243 T10061028 55000 $
  • 110153Z AUTO 00000KT CLR 01/M01 A3019 RMK AO2 SLP242 T00061006 $

TAF KTVL
Valid from the 11 at 00:00 until the 12 at 00:00 UTC


102320Z 1100/1124 03004KT P6SM BKN220
FM110100 20008KT P6SM VCSH SCT035 BKN070
FM110700 19005KT 3SM -SHSN BKN030 OVC050
FM111800 19008KT P6SM VCSH BKN050 OVC080



MET'MAP, your aeronautical weather chart ! - Copyright ORBIFLY December 2007 - Disclaimer

ORBIFLY MET'MAP TEAM :

Programming & Development : Alexandra Zaïnal
Concept & original design : Baudouin d'Aumeries
Assistance for programming : Marc-Olivier Méhu
Technical & hardware support : Manuel Goepfert

Contact : metmap@orbifly.com




SOURCES & CREDITS :

   NOAA       Earth
Advisory